sensor_id;sensor_type;location;lat;lon;timestamp;P1;durP1;ratioP1;P2;durP2;ratioP2
27758;SDS011;15148;48.972;12.794;2023-08-24T00:02:30;4.47;;;4.03;;
27758;SDS011;15148;48.972;12.794;2023-08-24T00:07:31;5.93;;;3.63;;
27758;SDS011;15148;48.972;12.794;2023-08-24T00:12:33;4.60;;;4.05;;
27758;SDS011;15148;48.972;12.794;2023-08-24T00:17:37;4.10;;;3.58;;
27758;SDS011;15148;48.972;12.794;2023-08-24T00:22:39;4.70;;;4.00;;
27758;SDS011;15148;48.972;12.794;2023-08-24T00:27:41;4.93;;;3.60;;
27758;SDS011;15148;48.972;12.794;2023-08-24T00:32:43;5.38;;;4.00;;
27758;SDS011;15148;48.972;12.794;2023-08-24T00:37:45;4.10;;;3.70;;
27758;SDS011;15148;48.972;12.794;2023-08-24T00:42:49;4.03;;;3.72;;
27758;SDS011;15148;48.972;12.794;2023-08-24T00:47:51;5.43;;;4.10;;
27758;SDS011;15148;48.972;12.794;2023-08-24T00:52:54;4.72;;;4.32;;
27758;SDS011;15148;48.972;12.794;2023-08-24T00:57:56;4.82;;;4.30;;
27758;SDS011;15148;48.972;12.794;2023-08-24T01:03:00;5.93;;;4.10;;
27758;SDS011;15148;48.972;12.794;2023-08-24T01:08:02;8.02;;;4.40;;
27758;SDS011;15148;48.972;12.794;2023-08-24T01:13:09;8.80;;;4.82;;
27758;SDS011;15148;48.972;12.794;2023-08-24T01:18:13;4.82;;;3.95;;
27758;SDS011;15148;48.972;12.794;2023-08-24T01:23:24;7.88;;;4.68;;
27758;SDS011;15148;48.972;12.794;2023-08-24T01:28:49;9.40;;;4.30;;
27758;SDS011;15148;48.972;12.794;2023-08-24T01:33:52;4.72;;;4.28;;
27758;SDS011;15148;48.972;12.794;2023-08-24T01:39:11;7.25;;;3.92;;
27758;SDS011;15148;48.972;12.794;2023-08-24T01:44:21;5.13;;;4.20;;
27758;SDS011;15148;48.972;12.794;2023-08-24T01:49:25;4.45;;;4.05;;
27758;SDS011;15148;48.972;12.794;2023-08-24T01:54:28;6.05;;;4.18;;
27758;SDS011;15148;48.972;12.794;2023-08-24T01:59:30;5.95;;;3.92;;
27758;SDS011;15148;48.972;12.794;2023-08-24T02:04:32;7.13;;;4.10;;
27758;SDS011;15148;48.972;12.794;2023-08-24T02:09:34;7.18;;;4.60;;
27758;SDS011;15148;48.972;12.794;2023-08-24T02:14:36;6.72;;;4.45;;
27758;SDS011;15148;48.972;12.794;2023-08-24T02:19:38;7.30;;;4.40;;
27758;SDS011;15148;48.972;12.794;2023-08-24T02:24:39;5.60;;;4.25;;
27758;SDS011;15148;48.972;12.794;2023-08-24T02:29:41;5.65;;;4.20;;
27758;SDS011;15148;48.972;12.794;2023-08-24T02:34:43;8.65;;;4.85;;
27758;SDS011;15148;48.972;12.794;2023-08-24T02:39:45;4.95;;;4.10;;
27758;SDS011;15148;48.972;12.794;2023-08-24T02:44:47;6.18;;;3.95;;
27758;SDS011;15148;48.972;12.794;2023-08-24T02:49:49;5.10;;;4.30;;
27758;SDS011;15148;48.972;12.794;2023-08-24T02:54:51;5.22;;;4.05;;
27758;SDS011;15148;48.972;12.794;2023-08-24T02:59:53;5.93;;;4.07;;
27758;SDS011;15148;48.972;12.794;2023-08-24T03:04:56;5.05;;;4.00;;
27758;SDS011;15148;48.972;12.794;2023-08-24T03:09:58;4.38;;;3.97;;
27758;SDS011;15148;48.972;12.794;2023-08-24T03:15:00;5.85;;;4.07;;
27758;SDS011;15148;48.972;12.794;2023-08-24T03:20:02;5.10;;;4.18;;
27758;SDS011;15148;48.972;12.794;2023-08-24T03:25:04;5.25;;;4.75;;
27758;SDS011;15148;48.972;12.794;2023-08-24T03:30:07;6.55;;;4.35;;
27758;SDS011;15148;48.972;12.794;2023-08-24T03:35:09;5.55;;;4.18;;
27758;SDS011;15148;48.972;12.794;2023-08-24T03:40:11;7.30;;;4.38;;
27758;SDS011;15148;48.972;12.794;2023-08-24T03:45:13;5.50;;;4.00;;
27758;SDS011;15148;48.972;12.794;2023-08-24T03:50:15;7.65;;;4.43;;
27758;SDS011;15148;48.972;12.794;2023-08-24T03:55:17;4.72;;;3.88;;
27758;SDS011;15148;48.972;12.794;2023-08-24T04:00:19;4.88;;;4.38;;
27758;SDS011;15148;48.972;12.794;2023-08-24T04:05:21;4.60;;;4.20;;
27758;SDS011;15148;48.972;12.794;2023-08-24T04:10:23;5.05;;;4.07;;
27758;SDS011;15148;48.972;12.794;2023-08-24T04:15:25;4.85;;;4.45;;
27758;SDS011;15148;48.972;12.794;2023-08-24T04:20:27;5.30;;;4.20;;
27758;SDS011;15148;48.972;12.794;2023-08-24T04:25:29;8.68;;;4.55;;
27758;SDS011;15148;48.972;12.794;2023-08-24T04:30:32;4.18;;;3.88;;
27758;SDS011;15148;48.972;12.794;2023-08-24T04:35:34;6.47;;;4.70;;
27758;SDS011;15148;48.972;12.794;2023-08-24T04:40:48;6.32;;;4.53;;
27758;SDS011;15148;48.972;12.794;2023-08-24T04:45:53;5.80;;;4.75;;
27758;SDS011;15148;48.972;12.794;2023-08-24T04:50:56;4.97;;;4.38;;
27758;SDS011;15148;48.972;12.794;2023-08-24T04:55:57;11.80;;;5.13;;
27758;SDS011;15148;48.972;12.794;2023-08-24T05:00:59;5.53;;;5.03;;
27758;SDS011;15148;48.972;12.794;2023-08-24T05:06:01;5.80;;;5.22;;
27758;SDS011;15148;48.972;12.794;2023-08-24T05:11:10;5.57;;;4.80;;
27758;SDS011;15148;48.972;12.794;2023-08-24T05:16:13;5.40;;;5.00;;
27758;SDS011;15148;48.972;12.794;2023-08-24T05:21:15;6.82;;;4.60;;
27758;SDS011;15148;48.972;12.794;2023-08-24T05:26:17;5.60;;;5.10;;
27758;SDS011;15148;48.972;12.794;2023-08-24T05:31:24;6.65;;;5.43;;
27758;SDS011;15148;48.972;12.794;2023-08-24T05:36:26;6.03;;;5.47;;
27758;SDS011;15148;48.972;12.794;2023-08-24T05:41:28;6.57;;;5.53;;
27758;SDS011;15148;48.972;12.794;2023-08-24T05:46:29;5.88;;;5.38;;
27758;SDS011;15148;48.972;12.794;2023-08-24T05:51:31;5.35;;;4.57;;
27758;SDS011;15148;48.972;12.794;2023-08-24T05:56:33;5.70;;;5.13;;
27758;SDS011;15148;48.972;12.794;2023-08-24T06:01:35;6.43;;;5.70;;
27758;SDS011;15148;48.972;12.794;2023-08-24T06:06:39;6.93;;;6.25;;
27758;SDS011;15148;48.972;12.794;2023-08-24T06:11:41;5.80;;;5.20;;
27758;SDS011;15148;48.972;12.794;2023-08-24T06:16:43;7.32;;;6.38;;
27758;SDS011;15148;48.972;12.794;2023-08-24T06:21:45;8.23;;;6.82;;
27758;SDS011;15148;48.972;12.794;2023-08-24T06:26:47;7.20;;;5.70;;
27758;SDS011;15148;48.972;12.794;2023-08-24T06:31:49;6.28;;;5.68;;
27758;SDS011;15148;48.972;12.794;2023-08-24T06:36:52;8.25;;;6.55;;
27758;SDS011;15148;48.972;12.794;2023-08-24T06:41:54;6.78;;;5.68;;
27758;SDS011;15148;48.972;12.794;2023-08-24T06:46:59;6.55;;;5.95;;
27758;SDS011;15148;48.972;12.794;2023-08-24T06:52:05;6.40;;;5.43;;
27758;SDS011;15148;48.972;12.794;2023-08-24T06:57:07;7.68;;;5.43;;
27758;SDS011;15148;48.972;12.794;2023-08-24T07:02:09;6.50;;;5.90;;
27758;SDS011;15148;48.972;12.794;2023-08-24T07:07:11;8.75;;;6.18;;
27758;SDS011;15148;48.972;12.794;2023-08-24T07:12:13;6.45;;;5.85;;
27758;SDS011;15148;48.972;12.794;2023-08-24T07:17:14;8.50;;;5.50;;
27758;SDS011;15148;48.972;12.794;2023-08-24T07:22:16;8.10;;;5.93;;
27758;SDS011;15148;48.972;12.794;2023-08-24T07:27:18;6.75;;;4.80;;
27758;SDS011;15148;48.972;12.794;2023-08-24T07:32:21;5.45;;;4.95;;
27758;SDS011;15148;48.972;12.794;2023-08-24T07:37:25;5.25;;;4.68;;
27758;SDS011;15148;48.972;12.794;2023-08-24T07:42:27;5.20;;;4.70;;
27758;SDS011;15148;48.972;12.794;2023-08-24T07:47:29;7.20;;;4.78;;
27758;SDS011;15148;48.972;12.794;2023-08-24T07:52:31;5.32;;;4.82;;
27758;SDS011;15148;48.972;12.794;2023-08-24T07:57:36;6.50;;;4.78;;
27758;SDS011;15148;48.972;12.794;2023-08-24T08:02:39;5.18;;;4.22;;
27758;SDS011;15148;48.972;12.794;2023-08-24T08:07:41;4.70;;;4.25;;
27758;SDS011;15148;48.972;12.794;2023-08-24T08:12:42;4.57;;;4.20;;
27758;SDS011;15148;48.972;12.794;2023-08-24T08:17:44;4.30;;;3.90;;
27758;SDS011;15148;48.972;12.794;2023-08-24T08:22:47;5.97;;;4.07;;
27758;SDS011;15148;48.972;12.794;2023-08-24T08:27:49;5.40;;;4.22;;
27758;SDS011;15148;48.972;12.794;2023-08-24T08:32:52;4.55;;;3.80;;
27758;SDS011;15148;48.972;12.794;2023-08-24T08:37:54;6.28;;;4.15;;
27758;SDS011;15148;48.972;12.794;2023-08-24T08:42:57;4.88;;;3.80;;
27758;SDS011;15148;48.972;12.794;2023-08-24T08:48:00;6.13;;;4.00;;
27758;SDS011;15148;48.972;12.794;2023-08-24T08:53:03;6.00;;;4.70;;
27758;SDS011;15148;48.972;12.794;2023-08-24T08:58:05;4.55;;;4.13;;
27758;SDS011;15148;48.972;12.794;2023-08-24T09:03:07;5.60;;;4.30;;
27758;SDS011;15148;48.972;12.794;2023-08-24T09:08:10;4.97;;;4.40;;
27758;SDS011;15148;48.972;12.794;2023-08-24T09:13:12;4.88;;;4.10;;
27758;SDS011;15148;48.972;12.794;2023-08-24T09:18:14;9.15;;;4.55;;
27758;SDS011;15148;48.972;12.794;2023-08-24T09:23:19;4.93;;;3.80;;
27758;SDS011;15148;48.972;12.794;2023-08-24T09:28:24;3.53;;;3.20;;
27758;SDS011;15148;48.972;12.794;2023-08-24T09:33:26;4.40;;;4.03;;
27758;SDS011;15148;48.972;12.794;2023-08-24T09:38:28;4.53;;;4.05;;
27758;SDS011;15148;48.972;12.794;2023-08-24T09:43:30;4.95;;;4.55;;
27758;SDS011;15148;48.972;12.794;2023-08-24T09:48:32;4.28;;;3.85;;
27758;SDS011;15148;48.972;12.794;2023-08-24T09:53:36;4.30;;;3.90;;
27758;SDS011;15148;48.972;12.794;2023-08-24T09:58:42;5.10;;;4.25;;
27758;SDS011;15148;48.972;12.794;2023-08-24T10:03:46;4.95;;;4.10;;
27758;SDS011;15148;48.972;12.794;2023-08-24T10:08:54;5.32;;;4.70;;
27758;SDS011;15148;48.972;12.794;2023-08-24T10:19:45;5.70;;;4.50;;
27758;SDS011;15148;48.972;12.794;2023-08-24T10:24:48;6.50;;;4.60;;
27758;SDS011;15148;48.972;12.794;2023-08-24T10:29:52;5.07;;;4.50;;
27758;SDS011;15148;48.972;12.794;2023-08-24T10:34:54;9.43;;;4.90;;
27758;SDS011;15148;48.972;12.794;2023-08-24T10:39:56;9.43;;;6.38;;
27758;SDS011;15148;48.972;12.794;2023-08-24T10:44:58;6.35;;;4.43;;
27758;SDS011;15148;48.972;12.794;2023-08-24T10:50:00;5.13;;;4.63;;
27758;SDS011;15148;48.972;12.794;2023-08-24T10:55:03;4.88;;;4.38;;
27758;SDS011;15148;48.972;12.794;2023-08-24T11:00:23;5.32;;;4.53;;
27758;SDS011;15148;48.972;12.794;2023-08-24T11:05:31;7.72;;;6.25;;
27758;SDS011;15148;48.972;12.794;2023-08-24T11:15:48;5.85;;;4.40;;
27758;SDS011;15148;48.972;12.794;2023-08-24T11:20:59;5.65;;;4.95;;
27758;SDS011;15148;48.972;12.794;2023-08-24T11:31:05;6.38;;;4.35;;
27758;SDS011;15148;48.972;12.794;2023-08-24T11:36:10;6.35;;;5.65;;
27758;SDS011;15148;48.972;12.794;2023-08-24T11:41:17;5.13;;;4.32;;
27758;SDS011;15148;48.972;12.794;2023-08-24T11:46:20;4.78;;;4.32;;
27758;SDS011;15148;48.972;12.794;2023-08-24T11:51:26;4.65;;;4.25;;
27758;SDS011;15148;48.972;12.794;2023-08-24T11:56:43;5.00;;;4.60;;
27758;SDS011;15148;48.972;12.794;2023-08-24T12:01:45;8.50;;;5.25;;
27758;SDS011;15148;48.972;12.794;2023-08-24T12:06:48;5.38;;;4.40;;
27758;SDS011;15148;48.972;12.794;2023-08-24T12:11:55;5.82;;;4.35;;
27758;SDS011;15148;48.972;12.794;2023-08-24T12:21:59;4.50;;;4.10;;
27758;SDS011;15148;48.972;12.794;2023-08-24T12:27:01;5.15;;;3.88;;
27758;SDS011;15148;48.972;12.794;2023-08-24T12:32:04;5.32;;;4.30;;
27758;SDS011;15148;48.972;12.794;2023-08-24T12:37:06;4.57;;;3.92;;
27758;SDS011;15148;48.972;12.794;2023-08-24T12:42:08;5.22;;;4.72;;
27758;SDS011;15148;48.972;12.794;2023-08-24T12:47:10;5.70;;;5.15;;
27758;SDS011;15148;48.972;12.794;2023-08-24T12:52:12;7.25;;;4.80;;
27758;SDS011;15148;48.972;12.794;2023-08-24T12:57:13;5.45;;;4.95;;
27758;SDS011;15148;48.972;12.794;2023-08-24T13:02:15;6.18;;;4.93;;
27758;SDS011;15148;48.972;12.794;2023-08-24T13:07:37;7.28;;;5.15;;
27758;SDS011;15148;48.972;12.794;2023-08-24T13:12:39;5.00;;;4.40;;
27758;SDS011;15148;48.972;12.794;2023-08-24T13:17:41;5.75;;;4.65;;
27758;SDS011;15148;48.972;12.794;2023-08-24T13:22:44;7.30;;;4.95;;
27758;SDS011;15148;48.972;12.794;2023-08-24T13:27:46;6.10;;;5.60;;
27758;SDS011;15148;48.972;12.794;2023-08-24T13:32:48;6.53;;;4.78;;
27758;SDS011;15148;48.972;12.794;2023-08-24T13:37:51;8.07;;;5.18;;
27758;SDS011;15148;48.972;12.794;2023-08-24T13:42:52;9.00;;;5.30;;
27758;SDS011;15148;48.972;12.794;2023-08-24T13:47:54;9.32;;;5.15;;
27758;SDS011;15148;48.972;12.794;2023-08-24T13:52:56;7.13;;;5.45;;
27758;SDS011;15148;48.972;12.794;2023-08-24T13:57:58;8.25;;;5.38;;
27758;SDS011;15148;48.972;12.794;2023-08-24T14:03:00;5.82;;;5.07;;
27758;SDS011;15148;48.972;12.794;2023-08-24T14:08:02;6.93;;;5.60;;
27758;SDS011;15148;48.972;12.794;2023-08-24T14:13:04;5.80;;;5.30;;
27758;SDS011;15148;48.972;12.794;2023-08-24T14:18:05;6.00;;;5.30;;
27758;SDS011;15148;48.972;12.794;2023-08-24T14:23:07;12.02;;;5.20;;
27758;SDS011;15148;48.972;12.794;2023-08-24T14:28:10;5.32;;;4.82;;
27758;SDS011;15148;48.972;12.794;2023-08-24T14:33:12;7.40;;;5.22;;
27758;SDS011;15148;48.972;12.794;2023-08-24T14:38:14;5.53;;;5.03;;
27758;SDS011;15148;48.972;12.794;2023-08-24T14:43:16;6.82;;;5.40;;
27758;SDS011;15148;48.972;12.794;2023-08-24T14:48:17;10.20;;;7.72;;
27758;SDS011;15148;48.972;12.794;2023-08-24T14:53:19;7.13;;;4.68;;
27758;SDS011;15148;48.972;12.794;2023-08-24T14:58:22;5.20;;;4.47;;
27758;SDS011;15148;48.972;12.794;2023-08-24T15:03:25;7.38;;;4.30;;
27758;SDS011;15148;48.972;12.794;2023-08-24T15:08:28;6.40;;;4.88;;
27758;SDS011;15148;48.972;12.794;2023-08-24T15:13:30;4.85;;;4.43;;
27758;SDS011;15148;48.972;12.794;2023-08-24T15:18:32;6.85;;;4.40;;
27758;SDS011;15148;48.972;12.794;2023-08-24T15:23:33;17.50;;;4.82;;
27758;SDS011;15148;48.972;12.794;2023-08-24T15:28:36;7.05;;;4.90;;
27758;SDS011;15148;48.972;12.794;2023-08-24T15:33:54;12.23;;;5.28;;
27758;SDS011;15148;48.972;12.794;2023-08-24T15:38:56;11.13;;;5.22;;
27758;SDS011;15148;48.972;12.794;2023-08-24T15:43:57;12.95;;;4.38;;
27758;SDS011;15148;48.972;12.794;2023-08-24T15:48:59;11.48;;;4.15;;
27758;SDS011;15148;48.972;12.794;2023-08-24T15:54:02;9.32;;;4.90;;
27758;SDS011;15148;48.972;12.794;2023-08-24T15:59:04;9.30;;;4.93;;
27758;SDS011;15148;48.972;12.794;2023-08-24T16:04:06;11.10;;;5.50;;
27758;SDS011;15148;48.972;12.794;2023-08-24T16:09:08;9.30;;;4.70;;
27758;SDS011;15148;48.972;12.794;2023-08-24T16:14:10;14.57;;;7.18;;
27758;SDS011;15148;48.972;12.794;2023-08-24T16:19:12;30.90;;;15.95;;
27758;SDS011;15148;48.972;12.794;2023-08-24T16:24:15;23.42;;;11.93;;
27758;SDS011;15148;48.972;12.794;2023-08-24T16:29:17;18.33;;;8.90;;
27758;SDS011;15148;48.972;12.794;2023-08-24T16:34:19;21.13;;;9.25;;
27758;SDS011;15148;48.972;12.794;2023-08-24T16:39:23;19.40;;;8.65;;
27758;SDS011;15148;48.972;12.794;2023-08-24T16:44:25;17.75;;;6.88;;
27758;SDS011;15148;48.972;12.794;2023-08-24T16:49:27;20.48;;;8.63;;
27758;SDS011;15148;48.972;12.794;2023-08-24T16:54:28;20.30;;;8.20;;
27758;SDS011;15148;48.972;12.794;2023-08-24T16:59:30;25.13;;;9.40;;
27758;SDS011;15148;48.972;12.794;2023-08-24T17:04:32;19.95;;;11.45;;
27758;SDS011;15148;48.972;12.794;2023-08-24T17:09:34;41.63;;;14.68;;
27758;SDS011;15148;48.972;12.794;2023-08-24T17:14:36;42.08;;;18.70;;
27758;SDS011;15148;48.972;12.794;2023-08-24T17:19:39;29.40;;;12.63;;
27758;SDS011;15148;48.972;12.794;2023-08-24T17:24:41;18.13;;;9.25;;
27758;SDS011;15148;48.972;12.794;2023-08-24T17:29:43;13.63;;;7.75;;
27758;SDS011;15148;48.972;12.794;2023-08-24T17:34:45;6.25;;;5.15;;
27758;SDS011;15148;48.972;12.794;2023-08-24T17:39:46;10.88;;;4.43;;
27758;SDS011;15148;48.972;12.794;2023-08-24T17:44:48;14.60;;;8.27;;
27758;SDS011;15148;48.972;12.794;2023-08-24T17:49:50;6.63;;;5.22;;
27758;SDS011;15148;48.972;12.794;2023-08-24T17:54:52;11.00;;;6.20;;
27758;SDS011;15148;48.972;12.794;2023-08-24T17:59:54;18.60;;;5.15;;
27758;SDS011;15148;48.972;12.794;2023-08-24T18:04:56;10.70;;;5.75;;
27758;SDS011;15148;48.972;12.794;2023-08-24T18:09:58;15.32;;;5.82;;
27758;SDS011;15148;48.972;12.794;2023-08-24T18:15:00;11.13;;;4.55;;
27758;SDS011;15148;48.972;12.794;2023-08-24T18:20:02;9.05;;;5.38;;
27758;SDS011;15148;48.972;12.794;2023-08-24T18:25:04;19.77;;;5.75;;
27758;SDS011;15148;48.972;12.794;2023-08-24T18:30:06;11.55;;;6.28;;
27758;SDS011;15148;48.972;12.794;2023-08-24T18:35:10;9.45;;;5.00;;
27758;SDS011;15148;48.972;12.794;2023-08-24T18:40:12;8.30;;;4.93;;
27758;SDS011;15148;48.972;12.794;2023-08-24T18:45:13;8.45;;;4.75;;
27758;SDS011;15148;48.972;12.794;2023-08-24T18:50:15;7.35;;;5.00;;
27758;SDS011;15148;48.972;12.794;2023-08-24T18:55:17;8.98;;;5.53;;
27758;SDS011;15148;48.972;12.794;2023-08-24T19:00:21;8.35;;;5.22;;
27758;SDS011;15148;48.972;12.794;2023-08-24T19:05:23;10.82;;;4.75;;
27758;SDS011;15148;48.972;12.794;2023-08-24T19:10:24;8.35;;;4.80;;
27758;SDS011;15148;48.972;12.794;2023-08-24T19:15:26;9.50;;;4.60;;
27758;SDS011;15148;48.972;12.794;2023-08-24T19:20:30;6.63;;;4.50;;
27758;SDS011;15148;48.972;12.794;2023-08-24T19:25:32;9.50;;;4.10;;
27758;SDS011;15148;48.972;12.794;2023-08-24T19:30:36;14.10;;;9.43;;
27758;SDS011;15148;48.972;12.794;2023-08-24T19:35:40;7.25;;;5.70;;
27758;SDS011;15148;48.972;12.794;2023-08-24T19:40:41;9.75;;;4.90;;
27758;SDS011;15148;48.972;12.794;2023-08-24T19:45:44;7.88;;;4.90;;
27758;SDS011;15148;48.972;12.794;2023-08-24T19:50:46;9.02;;;4.90;;
27758;SDS011;15148;48.972;12.794;2023-08-24T19:55:47;17.52;;;6.88;;
27758;SDS011;15148;48.972;12.794;2023-08-24T20:00:53;12.57;;;7.43;;
27758;SDS011;15148;48.972;12.794;2023-08-24T20:05:57;11.05;;;6.68;;
27758;SDS011;15148;48.972;12.794;2023-08-24T20:11:01;13.38;;;7.93;;
27758;SDS011;15148;48.972;12.794;2023-08-24T20:16:07;20.38;;;9.75;;
27758;SDS011;15148;48.972;12.794;2023-08-24T20:21:09;13.60;;;7.53;;
27758;SDS011;15148;48.972;12.794;2023-08-24T20:26:12;8.48;;;5.88;;
27758;SDS011;15148;48.972;12.794;2023-08-24T20:31:14;7.22;;;5.70;;
27758;SDS011;15148;48.972;12.794;2023-08-24T20:36:16;7.47;;;5.10;;
27758;SDS011;15148;48.972;12.794;2023-08-24T20:41:20;8.88;;;5.95;;
27758;SDS011;15148;48.972;12.794;2023-08-24T20:46:21;6.75;;;5.15;;
27758;SDS011;15148;48.972;12.794;2023-08-24T20:51:25;16.63;;;6.55;;
27758;SDS011;15148;48.972;12.794;2023-08-24T20:56:27;9.45;;;4.93;;
27758;SDS011;15148;48.972;12.794;2023-08-24T21:01:29;8.35;;;5.22;;
27758;SDS011;15148;48.972;12.794;2023-08-24T21:06:31;8.10;;;5.70;;
27758;SDS011;15148;48.972;12.794;2023-08-24T21:11:33;8.85;;;5.85;;
27758;SDS011;15148;48.972;12.794;2023-08-24T21:16:35;9.02;;;6.45;;
27758;SDS011;15148;48.972;12.794;2023-08-24T21:21:37;10.65;;;5.32;;
27758;SDS011;15148;48.972;12.794;2023-08-24T21:26:39;6.88;;;5.40;;
27758;SDS011;15148;48.972;12.794;2023-08-24T21:31:40;14.32;;;6.20;;
27758;SDS011;15148;48.972;12.794;2023-08-24T21:36:42;8.73;;;4.85;;
27758;SDS011;15148;48.972;12.794;2023-08-24T21:41:44;7.70;;;4.97;;
27758;SDS011;15148;48.972;12.794;2023-08-24T21:46:46;8.95;;;5.25;;
27758;SDS011;15148;48.972;12.794;2023-08-24T21:51:49;13.05;;;6.07;;
27758;SDS011;15148;48.972;12.794;2023-08-24T21:56:51;15.70;;;6.45;;
27758;SDS011;15148;48.972;12.794;2023-08-24T22:01:53;10.57;;;4.20;;
27758;SDS011;15148;48.972;12.794;2023-08-24T22:06:55;17.35;;;5.28;;
27758;SDS011;15148;48.972;12.794;2023-08-24T22:11:56;7.68;;;3.72;;
27758;SDS011;15148;48.972;12.794;2023-08-24T22:16:58;7.53;;;3.58;;
27758;SDS011;15148;48.972;12.794;2023-08-24T22:22:00;8.05;;;3.53;;
27758;SDS011;15148;48.972;12.794;2023-08-24T22:27:02;6.70;;;3.95;;
27758;SDS011;15148;48.972;12.794;2023-08-24T22:32:04;8.25;;;3.00;;
27758;SDS011;15148;48.972;12.794;2023-08-24T22:37:12;10.95;;;3.85;;
27758;SDS011;15148;48.972;12.794;2023-08-24T22:42:13;11.18;;;3.40;;
27758;SDS011;15148;48.972;12.794;2023-08-24T22:47:15;12.02;;;3.28;;
27758;SDS011;15148;48.972;12.794;2023-08-24T22:52:17;9.20;;;3.30;;
27758;SDS011;15148;48.972;12.794;2023-08-24T22:57:19;8.35;;;3.13;;
27758;SDS011;15148;48.972;12.794;2023-08-24T23:02:21;6.65;;;2.67;;
27758;SDS011;15148;48.972;12.794;2023-08-24T23:07:23;9.45;;;2.83;;
27758;SDS011;15148;48.972;12.794;2023-08-24T23:12:25;9.45;;;3.10;;
27758;SDS011;15148;48.972;12.794;2023-08-24T23:17:27;5.57;;;2.60;;
27758;SDS011;15148;48.972;12.794;2023-08-24T23:22:29;5.43;;;2.60;;
27758;SDS011;15148;48.972;12.794;2023-08-24T23:27:30;5.10;;;2.70;;
27758;SDS011;15148;48.972;12.794;2023-08-24T23:32:32;7.55;;;2.67;;
27758;SDS011;15148;48.972;12.794;2023-08-24T23:37:34;4.22;;;2.58;;
27758;SDS011;15148;48.972;12.794;2023-08-24T23:42:37;7.82;;;2.45;;
27758;SDS011;15148;48.972;12.794;2023-08-24T23:47:41;6.97;;;2.95;;
27758;SDS011;15148;48.972;12.794;2023-08-24T23:52:42;8.35;;;2.42;;
27758;SDS011;15148;48.972;12.794;2023-08-24T23:57:44;5.60;;;2.30;;
